createdAt,value
2018-11-07T00:00:37.115Z,6.63
2018-11-07T00:03:05.343Z,7.00
2018-11-07T00:05:32.845Z,7.13
2018-11-07T00:08:00.389Z,7.57
2018-11-07T00:10:27.788Z,6.87
2018-11-07T00:12:56.011Z,7.13
2018-11-07T00:15:23.497Z,6.90
2018-11-07T00:17:50.974Z,6.43
2018-11-07T00:20:18.447Z,6.73
2018-11-07T00:22:45.918Z,5.77
2018-11-07T00:25:13.383Z,6.50
2018-11-07T00:27:41.632Z,6.53
2018-11-07T00:30:09.338Z,6.70
2018-11-07T00:32:36.768Z,6.87
2018-11-07T00:35:05.076Z,6.43
2018-11-07T00:37:32.480Z,6.33
2018-11-07T00:39:59.955Z,6.27
2018-11-07T00:42:27.482Z,6.57
2018-11-07T00:44:54.882Z,6.00
2018-11-07T00:47:22.343Z,5.93
2018-11-07T00:49:49.811Z,5.83
2018-11-07T00:52:17.267Z,6.10
2018-11-07T00:54:45.278Z,7.20
2018-11-07T00:57:12.728Z,6.43
2018-11-07T00:59:40.194Z,6.50
2018-11-07T01:02:08.436Z,6.33
2018-11-07T01:04:35.913Z,6.30
2018-11-07T01:07:04.492Z,6.03
2018-11-07T01:09:31.989Z,6.53
2018-11-07T01:12:00.257Z,6.17
2018-11-07T01:14:28.014Z,5.90
2018-11-07T01:16:55.471Z,5.87
2018-11-07T01:19:22.936Z,5.60
2018-11-07T01:21:50.405Z,5.87
2018-11-07T01:24:17.865Z,5.57
2018-11-07T01:26:45.327Z,5.80
2018-11-07T01:29:12.895Z,4.73
2018-11-07T01:31:41.129Z,5.03
2018-11-07T01:34:08.599Z,5.23
2018-11-07T01:36:36.248Z,5.73
2018-11-07T01:39:03.699Z,5.57
2018-11-07T01:41:31.940Z,5.20
2018-11-07T01:43:59.394Z,5.10
2018-11-07T01:46:26.967Z,4.90
2018-11-07T01:48:54.531Z,5.20
2018-11-07T01:51:21.991Z,5.57
2018-11-07T01:53:49.561Z,5.00
2018-11-07T01:56:17.110Z,4.87
2018-11-07T01:58:44.688Z,4.80
2018-11-07T02:01:12.260Z,5.60
2018-11-07T02:03:40.055Z,5.10
2018-11-07T02:06:08.300Z,4.90
2018-11-07T02:08:35.767Z,4.47
2018-11-07T02:11:04.727Z,4.87
2018-11-07T02:13:32.237Z,4.67
2018-11-07T02:16:00.459Z,4.67
2018-11-07T02:18:27.929Z,4.70
2018-11-07T02:20:55.387Z,4.80
2018-11-07T02:23:22.847Z,4.53
2018-11-07T02:25:50.346Z,4.70
2018-11-07T02:28:17.824Z,5.50
2018-11-07T02:30:46.792Z,4.50
2018-11-07T02:33:14.256Z,4.77
2018-11-07T02:35:41.720Z,4.53
2018-11-07T02:38:09.195Z,4.27
2018-11-07T02:40:36.658Z,4.37
2018-11-07T02:43:05.616Z,4.33
2018-11-07T02:45:33.090Z,3.93
2018-11-07T02:48:00.545Z,4.13
2018-11-07T02:50:27.999Z,4.00
2018-11-07T02:52:55.467Z,4.03
2018-11-07T02:55:22.965Z,4.00
2018-11-07T02:57:50.520Z,4.13
2018-11-07T03:00:17.979Z,3.63
2018-11-07T03:02:45.452Z,3.50
2018-11-07T03:05:14.443Z,3.50
2018-11-07T03:07:41.918Z,3.30
2018-11-07T03:10:09.418Z,3.10
2018-11-07T03:12:37.604Z,3.70
2018-11-07T03:15:05.536Z,3.67
2018-11-07T03:17:32.987Z,3.03
2018-11-07T03:20:00.455Z,3.67
2018-11-07T03:22:30.188Z,3.67
2018-11-07T03:24:58.444Z,3.40
2018-11-07T03:27:25.911Z,3.30
2018-11-07T03:29:53.473Z,3.23
2018-11-07T03:32:21.070Z,3.73
2018-11-07T03:34:48.597Z,3.37
2018-11-07T03:37:16.165Z,3.43
2018-11-07T03:39:43.644Z,3.03
2018-11-07T03:42:11.872Z,3.13
2018-11-07T03:44:39.332Z,3.30
2018-11-07T03:47:06.828Z,3.27
2018-11-07T03:49:34.294Z,3.20
2018-11-07T03:52:01.761Z,3.00
2018-11-07T03:54:29.226Z,3.20
2018-11-07T03:56:56.691Z,2.50
2018-11-07T03:59:24.151Z,3.17
2018-11-07T04:01:52.432Z,2.53
2018-11-07T04:04:19.992Z,2.80
2018-11-07T04:06:47.452Z,2.60
2018-11-07T04:09:15.702Z,2.97
2018-11-07T04:11:43.164Z,2.43
2018-11-07T04:14:10.624Z,2.73
2018-11-07T04:16:38.329Z,3.00
2018-11-07T04:19:05.887Z,2.57
2018-11-07T04:21:34.110Z,2.60
2018-11-07T04:24:01.580Z,2.40
2018-11-07T04:26:29.034Z,2.67
2018-11-07T04:28:56.553Z,2.67
2018-11-07T04:31:24.012Z,2.80
2018-11-07T04:33:51.494Z,2.40
2018-11-07T04:36:18.940Z,2.03
2018-11-07T04:38:46.414Z,2.27
2018-11-07T04:41:13.863Z,2.30
2018-11-07T04:43:42.953Z,2.03
2018-11-07T04:46:10.391Z,2.43
2018-11-07T04:48:37.852Z,2.00
2018-11-07T04:51:05.313Z,2.13
2018-11-07T04:53:33.108Z,1.87
2018-11-07T04:56:00.562Z,2.30
2018-11-07T04:58:28.136Z,2.07
2018-11-07T05:00:55.899Z,2.03
2018-11-07T05:03:23.354Z,2.23
2018-11-07T05:05:50.802Z,2.13
2018-11-07T05:08:18.289Z,1.90
2018-11-07T05:10:47.284Z,1.97
2018-11-07T05:13:14.756Z,1.97
2018-11-07T05:15:42.305Z,1.97
2018-11-07T05:18:09.773Z,1.80
2018-11-07T05:20:37.332Z,2.20
2018-11-07T05:23:04.800Z,2.00
2018-11-07T05:25:32.504Z,1.50
2018-11-07T05:27:59.987Z,1.70
2018-11-07T05:30:27.490Z,1.87
2018-11-07T05:32:55.052Z,2.00
2018-11-07T05:35:22.620Z,1.80
2018-11-07T05:37:50.844Z,2.07
2018-11-07T05:40:18.728Z,2.10
2018-11-07T05:42:46.233Z,1.63
2018-11-07T05:45:13.798Z,1.90
2018-11-07T05:47:41.363Z,1.87
2018-11-07T05:50:08.826Z,1.87
2018-11-07T05:52:36.400Z,1.90
2018-11-07T05:55:04.640Z,2.20
2018-11-07T05:57:32.096Z,1.83
2018-11-07T05:59:59.548Z,1.90
2018-11-07T06:02:27.047Z,1.77
2018-11-07T06:04:54.507Z,1.80
2018-11-07T06:07:21.995Z,2.10
2018-11-07T06:09:49.540Z,1.80
2018-11-07T06:12:17.004Z,2.07
2018-11-07T06:14:44.458Z,1.80
2018-11-07T06:17:12.228Z,2.00
2018-11-07T06:19:39.674Z,1.63
2018-11-07T06:22:07.134Z,1.93
2018-11-07T06:24:34.620Z,1.63
2018-11-07T06:27:02.060Z,1.77
2018-11-07T06:29:29.542Z,1.90
2018-11-07T06:31:56.999Z,1.60
2018-11-07T06:34:24.464Z,2.03
2018-11-07T06:36:51.919Z,1.60
2018-11-07T06:39:19.369Z,1.63
2018-11-07T06:41:46.835Z,1.70
2018-11-07T06:44:14.317Z,1.87
2018-11-07T06:46:41.876Z,1.90
2018-11-07T06:49:09.441Z,1.60
2018-11-07T06:51:37.011Z,1.63
2018-11-07T06:54:04.459Z,1.73
2018-11-07T06:56:31.918Z,1.77
2018-11-07T06:58:59.476Z,1.97
2018-11-07T07:01:26.947Z,1.63
2018-11-07T07:03:54.400Z,1.87
2018-11-07T07:06:21.863Z,2.07
2018-11-07T07:08:49.336Z,2.10
2018-11-07T07:11:16.891Z,1.83
2018-11-07T07:13:44.388Z,1.80
2018-11-07T07:16:12.617Z,1.57
2018-11-07T07:18:40.113Z,1.87
2018-11-07T07:21:08.389Z,1.70
2018-11-07T07:23:35.959Z,1.60
2018-11-07T07:26:03.727Z,1.97
2018-11-07T07:28:31.171Z,1.80
2018-11-07T07:30:59.384Z,2.23
2018-11-07T07:33:27.681Z,1.57
2018-11-07T07:35:55.095Z,2.03
2018-11-07T07:38:22.551Z,1.83
2018-11-07T07:40:50.020Z,1.90
2018-11-07T07:43:17.588Z,2.30
2018-11-07T07:45:45.216Z,2.20
2018-11-07T07:48:12.607Z,2.10
2018-11-07T07:50:40.065Z,1.87
2018-11-07T07:53:07.578Z,1.87
2018-11-07T07:55:35.130Z,2.30
2018-11-07T07:58:04.280Z,1.93
2018-11-07T08:00:31.736Z,2.07
2018-11-07T08:02:59.191Z,2.00
2018-11-07T08:05:26.644Z,1.70
2018-11-07T08:07:54.159Z,2.00
2018-11-07T08:10:21.629Z,2.00
2018-11-07T08:12:49.175Z,2.03
2018-11-07T08:15:16.643Z,1.80
2018-11-07T08:17:44.207Z,1.87
2018-11-07T08:20:11.774Z,1.77
2018-11-07T08:22:39.327Z,2.27
2018-11-07T08:25:06.800Z,1.90
2018-11-07T08:27:34.264Z,1.90
2018-11-07T08:30:01.828Z,1.80
2018-11-07T08:32:29.285Z,2.00
2018-11-07T08:34:56.747Z,1.70
2018-11-07T08:37:24.197Z,1.80
2018-11-07T08:39:51.667Z,2.00
2018-11-07T08:42:19.201Z,2.00
2018-11-07T08:44:46.607Z,2.03
2018-11-07T08:47:14.153Z,2.13
2018-11-07T08:49:41.719Z,2.20
2018-11-07T08:52:09.201Z,2.00
2018-11-07T08:54:37.459Z,1.93
2018-11-07T08:57:05.029Z,2.40
2018-11-07T08:59:32.494Z,2.30
2018-11-07T09:01:59.978Z,2.20
2018-11-07T09:04:28.212Z,1.80
2018-11-07T09:06:55.687Z,1.80
2018-11-07T09:09:23.163Z,2.33
2018-11-07T09:11:50.626Z,2.10
2018-11-07T09:14:18.179Z,1.93
2018-11-07T09:16:45.650Z,1.97
2018-11-07T09:19:13.116Z,2.10
2018-11-07T09:21:40.587Z,2.20
2018-11-07T09:24:08.812Z,2.27
2018-11-07T09:26:36.293Z,1.80
2018-11-07T09:29:03.810Z,1.90
2018-11-07T09:31:31.331Z,2.30
2018-11-07T09:33:58.804Z,2.20
2018-11-07T09:36:26.256Z,1.93
2018-11-07T09:38:53.721Z,1.97
2018-11-07T09:41:21.188Z,2.00
2018-11-07T09:43:50.153Z,1.90
2018-11-07T09:46:17.618Z,2.40
2018-11-07T09:48:45.115Z,2.50
2018-11-07T09:51:12.575Z,2.37
2018-11-07T09:53:40.190Z,2.30
2018-11-07T09:56:07.610Z,2.10
2018-11-07T09:58:35.151Z,1.90
2018-11-07T10:01:03.597Z,2.10
2018-11-07T10:03:31.069Z,2.23
2018-11-07T10:05:58.519Z,1.83
2018-11-07T10:08:26.035Z,1.73
2018-11-07T10:10:53.512Z,1.90
2018-11-07T10:13:21.740Z,2.00
2018-11-07T10:15:49.239Z,2.50
2018-11-07T10:18:16.794Z,2.43
2018-11-07T10:20:44.413Z,2.20
2018-11-07T10:23:12.283Z,2.07
2018-11-07T10:25:39.799Z,1.80
2018-11-07T10:28:07.843Z,2.10
2018-11-07T10:30:34.812Z,1.90
2018-11-07T10:33:02.386Z,1.80
2018-11-07T10:35:29.944Z,2.13
2018-11-07T10:37:57.560Z,1.70
2018-11-07T10:40:24.990Z,1.57
2018-11-07T10:42:53.505Z,1.70
2018-11-07T10:45:21.834Z,2.00
2018-11-07T10:47:50.434Z,2.20
2018-11-07T10:50:17.986Z,1.80
2018-11-07T10:52:45.451Z,1.70
2018-11-07T10:55:12.908Z,2.00
2018-11-07T10:57:40.483Z,2.00
2018-11-07T11:00:07.943Z,1.50
2018-11-07T11:02:35.406Z,1.63
2018-11-07T11:05:03.926Z,1.50
2018-11-07T11:07:31.421Z,1.47
2018-11-07T11:09:58.924Z,1.30
2018-11-07T11:12:26.392Z,1.67
2018-11-07T11:14:53.944Z,1.53
2018-11-07T11:17:21.757Z,1.87
2018-11-07T11:19:49.172Z,1.67
2018-11-07T11:22:16.632Z,1.43
2018-11-07T11:24:44.644Z,1.80
2018-11-07T11:27:12.948Z,2.07
2018-11-07T11:29:40.349Z,1.83
2018-11-07T11:32:08.120Z,1.53
2018-11-07T11:34:35.751Z,1.77
2018-11-07T11:37:03.684Z,1.35
2018-11-07T11:39:31.938Z,1.70
2018-11-07T11:42:00.176Z,1.50
2018-11-07T11:44:27.643Z,1.73
2018-11-07T11:46:55.143Z,1.40
2018-11-07T11:49:22.596Z,1.63
2018-11-07T11:51:50.072Z,1.37
2018-11-07T11:54:17.528Z,1.43
2018-11-07T11:56:45.102Z,1.53
2018-11-07T11:59:12.726Z,1.50
2018-11-07T12:01:40.805Z,1.60
2018-11-07T12:04:08.270Z,1.47
2018-11-07T12:06:35.759Z,1.30
2018-11-07T12:09:04.475Z,1.30
2018-11-07T12:11:31.895Z,1.60
2018-11-07T12:13:59.387Z,1.30
2018-11-07T12:16:26.844Z,1.40
2018-11-07T12:18:54.402Z,1.20
2018-11-07T12:21:22.003Z,1.53
2018-11-07T12:23:50.142Z,1.40
2018-11-07T12:26:17.703Z,1.17
2018-11-07T12:28:45.168Z,1.50
2018-11-07T12:31:12.627Z,1.37
2018-11-07T12:33:40.412Z,1.50
2018-11-07T12:36:07.997Z,1.60
2018-11-07T12:38:35.530Z,1.43
2018-11-07T12:41:03.923Z,1.60
2018-11-07T12:43:31.395Z,1.30
2018-11-07T12:45:59.616Z,1.50
2018-11-07T12:48:27.111Z,1.60
2018-11-07T12:50:54.571Z,1.53
2018-11-07T12:53:22.043Z,1.50
2018-11-07T12:55:49.509Z,1.53
2018-11-07T12:58:17.409Z,1.40
2018-11-07T13:00:44.722Z,1.43
2018-11-07T13:03:12.183Z,1.53
2018-11-07T13:05:39.751Z,1.60
2018-11-07T13:08:07.316Z,1.50
2018-11-07T13:10:34.885Z,1.53
2018-11-07T13:13:02.340Z,1.50
2018-11-07T13:15:30.111Z,1.63
2018-11-07T13:17:57.679Z,1.33
2018-11-07T13:20:25.132Z,1.60
2018-11-07T13:22:52.911Z,1.70
2018-11-07T13:25:20.484Z,1.50
2018-11-07T13:27:48.031Z,1.63
2018-11-07T13:30:15.510Z,1.73
2018-11-07T13:32:42.992Z,1.90
2018-11-07T13:35:10.435Z,1.63
2018-11-07T13:37:38.156Z,1.60
2018-11-07T13:40:05.460Z,1.70
2018-11-07T13:42:32.920Z,1.90
2018-11-07T13:45:00.685Z,1.60
2018-11-07T13:47:28.145Z,1.47
2018-11-07T13:49:55.708Z,1.60
2018-11-07T13:52:24.048Z,1.80
2018-11-07T13:54:51.548Z,1.90
2018-11-07T13:57:18.999Z,1.80
2018-11-07T13:59:46.481Z,1.77
2018-11-07T14:02:13.948Z,1.93
2018-11-07T14:04:41.506Z,1.90
2018-11-07T14:07:08.960Z,1.90
2018-11-07T14:09:36.430Z,1.90
2018-11-07T14:12:03.884Z,1.73
2018-11-07T14:14:32.721Z,1.80
2018-11-07T14:17:01.266Z,2.10
2018-11-07T14:19:28.720Z,1.70
2018-11-07T14:21:56.194Z,1.90
2018-11-07T14:24:23.750Z,2.10
2018-11-07T14:26:51.219Z,2.60
2018-11-07T14:29:18.687Z,2.30
2018-11-07T14:31:47.728Z,1.63
2018-11-07T14:34:15.237Z,1.87
2018-11-07T14:36:42.863Z,1.77
2018-11-07T14:39:10.617Z,1.80
2018-11-07T14:41:38.034Z,2.00
2018-11-07T14:44:05.501Z,1.90
2018-11-07T14:46:33.024Z,1.80
2018-11-07T14:49:01.932Z,1.83
2018-11-07T14:51:29.403Z,1.83
2018-11-07T14:53:56.871Z,2.00
2018-11-07T14:56:24.444Z,1.90
2018-11-07T14:58:51.927Z,1.67
2018-11-07T15:01:20.139Z,1.93
2018-11-07T15:03:47.640Z,1.90
2018-11-07T15:06:15.253Z,1.93
2018-11-07T15:08:42.686Z,1.80
2018-11-07T15:11:11.701Z,1.60
2018-11-07T15:13:39.231Z,2.20
2018-11-07T15:16:06.808Z,1.70
2018-11-07T15:18:34.345Z,1.83
2018-11-07T15:21:01.808Z,1.80
2018-11-07T15:23:29.280Z,1.73
2018-11-07T15:25:56.848Z,1.83
2018-11-07T15:28:24.307Z,1.80
2018-11-07T15:30:51.775Z,2.30
2018-11-07T15:33:19.238Z,2.00
2018-11-07T15:35:46.800Z,1.67
2018-11-07T15:38:14.356Z,1.77
2018-11-07T15:40:41.807Z,1.77
2018-11-07T15:43:09.267Z,2.07
2018-11-07T15:45:36.738Z,2.20
2018-11-07T15:48:04.192Z,2.03
2018-11-07T15:50:31.657Z,1.70
2018-11-07T15:52:59.151Z,1.77
2018-11-07T15:55:28.100Z,2.20
2018-11-07T15:57:55.559Z,1.93
2018-11-07T16:00:23.036Z,2.10
2018-11-07T16:02:50.501Z,2.10
2018-11-07T16:05:17.984Z,1.90
2018-11-07T16:07:45.453Z,1.80
2018-11-07T16:10:14.449Z,1.90
2018-11-07T16:12:42.000Z,1.50
2018-11-07T16:15:09.572Z,1.80
2018-11-07T16:17:37.032Z,2.00
2018-11-07T16:20:04.495Z,1.70
2018-11-07T16:22:32.100Z,1.70
2018-11-07T16:25:00.293Z,1.77
2018-11-07T16:27:27.793Z,1.90
2018-11-07T16:29:55.262Z,1.73
2018-11-07T16:32:22.824Z,1.70
2018-11-07T16:34:50.275Z,2.00
2018-11-07T16:37:17.744Z,2.00
2018-11-07T16:39:45.304Z,2.17
2018-11-07T16:42:12.774Z,2.00
2018-11-07T16:44:40.224Z,2.23
2018-11-07T16:47:07.762Z,2.23
2018-11-07T16:49:35.151Z,2.40
2018-11-07T16:52:02.724Z,2.10
2018-11-07T16:54:30.284Z,2.03
2018-11-07T16:56:57.743Z,2.80
2018-11-07T16:59:25.313Z,2.70
2018-11-07T17:01:52.868Z,2.60
2018-11-07T17:04:20.339Z,2.43
2018-11-07T17:06:47.900Z,2.60
2018-11-07T17:09:15.365Z,2.93
2018-11-07T17:11:42.935Z,2.33
2018-11-07T17:14:10.501Z,2.93
2018-11-07T17:16:37.952Z,2.97
2018-11-07T17:19:05.419Z,3.17
2018-11-07T17:21:32.974Z,3.10
2018-11-07T17:24:00.672Z,3.20
2018-11-07T17:26:28.114Z,3.37
2018-11-07T17:28:57.088Z,2.97
2018-11-07T17:31:24.622Z,2.73
2018-11-07T17:33:52.137Z,3.57
2018-11-07T17:36:19.697Z,3.00
2018-11-07T17:38:47.261Z,3.03
2018-11-07T17:41:14.828Z,3.23
2018-11-07T17:43:42.389Z,2.93
2018-11-07T17:46:11.257Z,3.17
2018-11-07T17:48:38.903Z,3.47
2018-11-07T17:51:06.409Z,3.60
2018-11-07T17:53:33.979Z,3.33
2018-11-07T17:56:01.543Z,2.90
2018-11-07T17:58:29.105Z,3.10
2018-11-07T18:00:57.611Z,2.63
2018-11-07T18:03:25.074Z,3.27
2018-11-07T18:05:52.543Z,3.40
2018-11-07T18:08:20.798Z,3.33
2018-11-07T18:10:48.352Z,2.77
2018-11-07T18:13:15.921Z,3.30
2018-11-07T18:15:43.398Z,2.90
2018-11-07T18:18:10.856Z,3.03
2018-11-07T18:20:38.328Z,2.87
2018-11-07T18:23:06.551Z,3.00
2018-11-07T18:25:34.049Z,2.90
2018-11-07T18:28:01.513Z,2.87
2018-11-07T18:30:29.077Z,2.60
2018-11-07T18:32:56.545Z,2.37
2018-11-07T18:35:24.103Z,2.80
2018-11-07T18:37:51.555Z,2.53
2018-11-07T18:40:19.026Z,2.43
2018-11-07T18:42:46.485Z,2.50
2018-11-07T18:45:13.941Z,3.07
2018-11-07T18:47:41.424Z,3.20
2018-11-07T18:50:08.974Z,2.50
2018-11-07T18:52:37.135Z,2.23
2018-11-07T18:55:04.596Z,2.47
2018-11-07T18:57:32.082Z,2.60
2018-11-07T18:59:59.645Z,2.57
2018-11-07T19:02:27.116Z,3.00
2018-11-07T19:04:56.071Z,2.90
2018-11-07T19:07:23.540Z,2.20
2018-11-07T19:09:51.001Z,2.40
2018-11-07T19:12:18.489Z,2.73
2018-11-07T19:14:45.953Z,2.77
2018-11-07T19:17:14.199Z,2.40
2018-11-07T19:19:41.670Z,2.50
2018-11-07T19:22:09.160Z,2.80
2018-11-07T19:24:36.717Z,2.53
2018-11-07T19:27:04.244Z,2.33
2018-11-07T19:29:31.658Z,2.43
2018-11-07T19:31:59.112Z,2.30
2018-11-07T19:34:26.673Z,2.80
2018-11-07T19:36:54.232Z,2.90
2018-11-07T19:39:21.701Z,2.63
2018-11-07T19:41:49.259Z,3.43
2018-11-07T19:44:16.718Z,2.63
2018-11-07T19:46:44.351Z,2.60
2018-11-07T19:49:11.768Z,2.80
2018-11-07T19:51:40.031Z,2.33
2018-11-07T19:54:07.493Z,2.53
2018-11-07T19:56:35.058Z,2.83
2018-11-07T19:59:02.539Z,2.60
2018-11-07T20:01:30.015Z,2.70
2018-11-07T20:03:58.232Z,2.30
2018-11-07T20:06:25.699Z,2.53
2018-11-07T20:08:53.188Z,2.50
2018-11-07T20:11:20.651Z,2.50
2018-11-07T20:13:48.414Z,2.50
2018-11-07T20:16:15.875Z,2.50
2018-11-07T20:18:43.334Z,2.70
2018-11-07T20:21:10.806Z,2.87
2018-11-07T20:23:38.280Z,2.33
2018-11-07T20:26:05.744Z,2.47
2018-11-07T20:28:33.988Z,2.60
2018-11-07T20:31:01.555Z,2.57
2018-11-07T20:33:29.061Z,2.40
2018-11-07T20:35:57.407Z,2.47
2018-11-07T20:38:24.779Z,2.53
2018-11-07T20:40:52.547Z,2.37
2018-11-07T20:43:20.004Z,2.43
2018-11-07T20:45:48.974Z,2.70
2018-11-07T20:48:16.456Z,2.67
2018-11-07T20:50:44.023Z,2.33
2018-11-07T20:53:12.517Z,2.47
2018-11-07T20:55:40.044Z,3.00
2018-11-07T20:58:07.560Z,2.30
2018-11-07T21:00:35.791Z,2.10
2018-11-07T21:03:04.698Z,2.53
2018-11-07T21:05:32.177Z,2.50
2018-11-07T21:07:59.658Z,2.77
2018-11-07T21:10:27.895Z,3.20
2018-11-07T21:12:55.376Z,2.50
2018-11-07T21:15:22.836Z,2.90
2018-11-07T21:17:50.395Z,2.50
2018-11-07T21:20:17.860Z,2.70
2018-11-07T21:22:45.427Z,2.73
2018-11-07T21:25:12.991Z,2.00
2018-11-07T21:27:40.566Z,2.80
2018-11-07T21:30:08.320Z,3.00
2018-11-07T21:32:35.789Z,2.70
2018-11-07T21:35:03.992Z,2.90
2018-11-07T21:37:33.336Z,2.57
2018-11-07T21:40:00.793Z,2.63
2018-11-07T21:42:28.255Z,2.70
2018-11-07T21:44:55.760Z,3.07
2018-11-07T21:47:23.234Z,2.73
2018-11-07T21:49:51.455Z,2.83
2018-11-07T21:52:18.903Z,2.93
2018-11-07T21:54:46.396Z,3.07
2018-11-07T21:57:14.595Z,2.93
2018-11-07T21:59:42.069Z,2.67
2018-11-07T22:02:09.516Z,3.37
2018-11-07T22:04:36.962Z,2.63
2018-11-07T22:07:04.431Z,2.53
2018-11-07T22:09:31.883Z,2.77
2018-11-07T22:11:59.347Z,2.80
2018-11-07T22:14:26.829Z,2.70
2018-11-07T22:16:54.283Z,2.60
2018-11-07T22:19:21.854Z,2.67
2018-11-07T22:21:49.413Z,2.30
2018-11-07T22:24:17.024Z,2.93
2018-11-07T22:26:44.468Z,2.60
2018-11-07T22:29:11.935Z,3.00
2018-11-07T22:31:39.581Z,2.83
2018-11-07T22:34:06.943Z,2.70
2018-11-07T22:36:34.413Z,3.13
2018-11-07T22:39:01.971Z,2.87
2018-11-07T22:41:29.435Z,2.70
2018-11-07T22:43:56.995Z,2.50
2018-11-07T22:46:24.545Z,2.53
2018-11-07T22:48:52.001Z,2.57
2018-11-07T22:51:19.476Z,2.87
2018-11-07T22:53:47.038Z,3.10
2018-11-07T22:56:14.612Z,2.57
2018-11-07T22:58:42.168Z,2.80
2018-11-07T23:01:09.621Z,2.70
2018-11-07T23:03:37.148Z,2.97
2018-11-07T23:06:04.549Z,3.07
2018-11-07T23:08:32.025Z,2.53
2018-11-07T23:10:59.485Z,3.47
2018-11-07T23:13:26.943Z,2.50
2018-11-07T23:15:54.505Z,2.73
2018-11-07T23:18:21.966Z,2.80
2018-11-07T23:20:49.433Z,2.73
2018-11-07T23:23:16.990Z,2.90
2018-11-07T23:25:44.440Z,2.87
2018-11-07T23:28:11.917Z,2.60
2018-11-07T23:30:39.376Z,3.47
2018-11-07T23:33:06.943Z,3.47
2018-11-07T23:35:34.403Z,2.50
2018-11-07T23:38:01.973Z,3.13
2018-11-07T23:40:29.527Z,2.30
2018-11-07T23:42:57.093Z,2.80
2018-11-07T23:45:24.652Z,2.33
2018-11-07T23:47:52.113Z,2.63
2018-11-07T23:50:19.568Z,3.07
2018-11-07T23:52:47.019Z,2.60
2018-11-07T23:55:14.492Z,2.53
2018-11-07T23:57:41.961Z,2.33
